sensor_id;sensor_type;location;lat;lon;timestamp;P1;durP1;ratioP1;P2;durP2;ratioP2
57315;SDS011;43156;50.942;18.144;2022-09-09T00:04:09;6.00;;;4.20;;
57315;SDS011;43156;50.942;18.144;2022-09-09T00:06:46;6.80;;;3.60;;
57315;SDS011;43156;50.942;18.144;2022-09-09T00:16:50;9.30;;;4.10;;
57315;SDS011;43156;50.942;18.144;2022-09-09T00:19:22;21.80;;;4.50;;
57315;SDS011;43156;50.942;18.144;2022-09-09T00:21:58;31.90;;;4.60;;
57315;SDS011;43156;50.942;18.144;2022-09-09T00:27:04;19.60;;;4.20;;
57315;SDS011;43156;50.942;18.144;2022-09-09T00:29:39;25.00;;;4.90;;
57315;SDS011;43156;50.942;18.144;2022-09-09T00:32:14;10.70;;;4.60;;
57315;SDS011;43156;50.942;18.144;2022-09-09T00:34:53;10.60;;;4.40;;
57315;SDS011;43156;50.942;18.144;2022-09-09T00:37:21;7.10;;;5.00;;
57315;SDS011;43156;50.942;18.144;2022-09-09T00:39:57;8.10;;;5.70;;
57315;SDS011;43156;50.942;18.144;2022-09-09T00:47:46;6.30;;;5.80;;
57315;SDS011;43156;50.942;18.144;2022-09-09T00:58:00;14.90;;;7.70;;
57315;SDS011;43156;50.942;18.144;2022-09-09T01:00:35;10.90;;;7.40;;
57315;SDS011;43156;50.942;18.144;2022-09-09T01:03:10;9.70;;;7.60;;
57315;SDS011;43156;50.942;18.144;2022-09-09T01:08:27;10.80;;;8.40;;
57315;SDS011;43156;50.942;18.144;2022-09-09T01:10:59;9.40;;;8.40;;
57315;SDS011;43156;50.942;18.144;2022-09-09T01:13:29;11.30;;;9.30;;
57315;SDS011;43156;50.942;18.144;2022-09-09T01:16:00;9.90;;;9.00;;
57315;SDS011;43156;50.942;18.144;2022-09-09T01:18:30;9.50;;;8.50;;
57315;SDS011;43156;50.942;18.144;2022-09-09T01:21:13;13.50;;;9.40;;
57315;SDS011;43156;50.942;18.144;2022-09-09T01:26:19;10.00;;;8.90;;
57315;SDS011;43156;50.942;18.144;2022-09-09T01:28:51;10.60;;;9.50;;
57315;SDS011;43156;50.942;18.144;2022-09-09T01:31:23;10.00;;;9.00;;
57315;SDS011;43156;50.942;18.144;2022-09-09T01:33:54;10.20;;;9.10;;
57315;SDS011;43156;50.942;18.144;2022-09-09T01:36:36;10.40;;;9.30;;
57315;SDS011;43156;50.942;18.144;2022-09-09T01:39:06;9.50;;;8.60;;
57315;SDS011;43156;50.942;18.144;2022-09-09T01:41:35;10.80;;;9.70;;
57315;SDS011;43156;50.942;18.144;2022-09-09T01:44:03;10.60;;;9.60;;
57315;SDS011;43156;50.942;18.144;2022-09-09T01:46:32;11.90;;;10.30;;
57315;SDS011;43156;50.942;18.144;2022-09-09T01:48:58;11.00;;;9.90;;
57315;SDS011;43156;50.942;18.144;2022-09-09T01:51:27;10.40;;;9.40;;
57315;SDS011;43156;50.942;18.144;2022-09-09T01:53:57;10.90;;;9.80;;
57315;SDS011;43156;50.942;18.144;2022-09-09T01:56:32;11.00;;;9.90;;
57315;SDS011;43156;50.942;18.144;2022-09-09T02:04:11;10.30;;;9.40;;
57315;SDS011;43156;50.942;18.144;2022-09-09T02:06:41;9.90;;;9.00;;
57315;SDS011;43156;50.942;18.144;2022-09-09T02:09:11;9.90;;;9.00;;
57315;SDS011;43156;50.942;18.144;2022-09-09T02:11:39;9.80;;;8.90;;
57315;SDS011;43156;50.942;18.144;2022-09-09T02:14:10;9.60;;;8.70;;
57315;SDS011;43156;50.942;18.144;2022-09-09T02:16:49;8.90;;;8.10;;
57315;SDS011;43156;50.942;18.144;2022-09-09T02:19:21;9.10;;;8.20;;
57315;SDS011;43156;50.942;18.144;2022-09-09T02:21:55;9.10;;;8.20;;
57315;SDS011;43156;50.942;18.144;2022-09-09T02:24:26;8.90;;;8.10;;
57315;SDS011;43156;50.942;18.144;2022-09-09T02:26:53;8.50;;;7.80;;
57315;SDS011;43156;50.942;18.144;2022-09-09T02:29:23;8.30;;;7.60;;
57315;SDS011;43156;50.942;18.144;2022-09-09T02:31:56;8.30;;;7.60;;
57315;SDS011;43156;50.942;18.144;2022-09-09T02:34:27;7.80;;;7.10;;
57315;SDS011;43156;50.942;18.144;2022-09-09T02:36:55;8.30;;;7.60;;
57315;SDS011;43156;50.942;18.144;2022-09-09T02:39:26;7.70;;;7.10;;
57315;SDS011;43156;50.942;18.144;2022-09-09T02:41:53;7.80;;;7.10;;
57315;SDS011;43156;50.942;18.144;2022-09-09T02:44:21;7.50;;;6.90;;
57315;SDS011;43156;50.942;18.144;2022-09-09T02:49:17;8.80;;;8.10;;
57315;SDS011;43156;50.942;18.144;2022-09-09T02:54:20;9.10;;;8.30;;
57315;SDS011;43156;50.942;18.144;2022-09-09T02:56:51;8.80;;;8.00;;
57315;SDS011;43156;50.942;18.144;2022-09-09T02:59:20;8.80;;;8.10;;
57315;SDS011;43156;50.942;18.144;2022-09-09T03:01:52;9.00;;;8.30;;
57315;SDS011;43156;50.942;18.144;2022-09-09T03:04:21;8.90;;;8.10;;
57315;SDS011;43156;50.942;18.144;2022-09-09T03:06:50;8.40;;;7.60;;
57315;SDS011;43156;50.942;18.144;2022-09-09T03:09:18;8.20;;;7.50;;
57315;SDS011;43156;50.942;18.144;2022-09-09T03:11:46;7.60;;;7.00;;
57315;SDS011;43156;50.942;18.144;2022-09-09T03:14:15;7.60;;;6.90;;
57315;SDS011;43156;50.942;18.144;2022-09-09T03:16:49;7.20;;;6.70;;
57315;SDS011;43156;50.942;18.144;2022-09-09T03:19:18;7.00;;;6.30;;
57315;SDS011;43156;50.942;18.144;2022-09-09T03:21:46;6.90;;;6.30;;
57315;SDS011;43156;50.942;18.144;2022-09-09T03:24:15;6.70;;;6.00;;
57315;SDS011;43156;50.942;18.144;2022-09-09T03:26:43;6.40;;;5.90;;
57315;SDS011;43156;50.942;18.144;2022-09-09T03:29:11;7.00;;;6.20;;
57315;SDS011;43156;50.942;18.144;2022-09-09T03:31:40;5.90;;;5.20;;
57315;SDS011;43156;50.942;18.144;2022-09-09T03:34:06;6.30;;;5.70;;
57315;SDS011;43156;50.942;18.144;2022-09-09T03:36:34;5.90;;;5.30;;
57315;SDS011;43156;50.942;18.144;2022-09-09T03:39:01;5.60;;;5.10;;
57315;SDS011;43156;50.942;18.144;2022-09-09T03:41:33;5.80;;;5.30;;
57315;SDS011;43156;50.942;18.144;2022-09-09T03:43:59;5.80;;;5.30;;
57315;SDS011;43156;50.942;18.144;2022-09-09T03:46:26;5.70;;;5.20;;
57315;SDS011;43156;50.942;18.144;2022-09-09T03:49:00;5.30;;;4.90;;
57315;SDS011;43156;50.942;18.144;2022-09-09T03:51:28;5.50;;;5.10;;
57315;SDS011;43156;50.942;18.144;2022-09-09T03:53:55;5.70;;;4.90;;
57315;SDS011;43156;50.942;18.144;2022-09-09T03:56:29;5.20;;;4.80;;
57315;SDS011;43156;50.942;18.144;2022-09-09T03:58:57;5.10;;;4.60;;
57315;SDS011;43156;50.942;18.144;2022-09-09T04:01:24;5.20;;;4.60;;
57315;SDS011;43156;50.942;18.144;2022-09-09T04:03:51;5.00;;;4.50;;
57315;SDS011;43156;50.942;18.144;2022-09-09T04:06:19;4.70;;;4.30;;
57315;SDS011;43156;50.942;18.144;2022-09-09T04:08:46;4.80;;;4.40;;
57315;SDS011;43156;50.942;18.144;2022-09-09T04:11:19;4.70;;;4.30;;
57315;SDS011;43156;50.942;18.144;2022-09-09T04:13:52;5.10;;;4.30;;
57315;SDS011;43156;50.942;18.144;2022-09-09T04:16:19;4.90;;;4.40;;
57315;SDS011;43156;50.942;18.144;2022-09-09T04:18:53;4.70;;;4.40;;
57315;SDS011;43156;50.942;18.144;2022-09-09T04:21:22;4.50;;;4.00;;
57315;SDS011;43156;50.942;18.144;2022-09-09T04:23:51;4.40;;;4.10;;
57315;SDS011;43156;50.942;18.144;2022-09-09T04:26:26;4.60;;;4.20;;
57315;SDS011;43156;50.942;18.144;2022-09-09T04:28:53;4.60;;;4.00;;
57315;SDS011;43156;50.942;18.144;2022-09-09T04:31:20;4.70;;;4.30;;
57315;SDS011;43156;50.942;18.144;2022-09-09T04:33:49;4.90;;;4.20;;
57315;SDS011;43156;50.942;18.144;2022-09-09T04:36:16;4.50;;;4.20;;
57315;SDS011;43156;50.942;18.144;2022-09-09T04:38:44;5.00;;;4.30;;
57315;SDS011;43156;50.942;18.144;2022-09-09T04:41:14;4.40;;;4.10;;
57315;SDS011;43156;50.942;18.144;2022-09-09T04:43:50;4.40;;;4.10;;
57315;SDS011;43156;50.942;18.144;2022-09-09T04:46:19;4.20;;;3.90;;
57315;SDS011;43156;50.942;18.144;2022-09-09T04:48:46;4.50;;;4.10;;
57315;SDS011;43156;50.942;18.144;2022-09-09T04:51:15;4.20;;;3.80;;
57315;SDS011;43156;50.942;18.144;2022-09-09T04:53:42;4.90;;;4.00;;
57315;SDS011;43156;50.942;18.144;2022-09-09T04:56:13;4.10;;;3.70;;
57315;SDS011;43156;50.942;18.144;2022-09-09T04:58:39;4.00;;;3.70;;
57315;SDS011;43156;50.942;18.144;2022-09-09T05:01:15;4.00;;;3.70;;
57315;SDS011;43156;50.942;18.144;2022-09-09T05:03:44;4.00;;;3.70;;
57315;SDS011;43156;50.942;18.144;2022-09-09T05:06:12;4.70;;;4.00;;
57315;SDS011;43156;50.942;18.144;2022-09-09T05:08:47;4.50;;;4.10;;
57315;SDS011;43156;50.942;18.144;2022-09-09T05:11:15;5.40;;;4.60;;
57315;SDS011;43156;50.942;18.144;2022-09-09T05:13:43;4.60;;;4.20;;
57315;SDS011;43156;50.942;18.144;2022-09-09T05:16:10;4.80;;;4.40;;
57315;SDS011;43156;50.942;18.144;2022-09-09T05:18:43;4.40;;;4.10;;
57315;SDS011;43156;50.942;18.144;2022-09-09T05:21:10;5.00;;;4.60;;
57315;SDS011;43156;50.942;18.144;2022-09-09T05:23:38;4.50;;;4.20;;
57315;SDS011;43156;50.942;18.144;2022-09-09T05:26:07;4.10;;;3.80;;
57315;SDS011;43156;50.942;18.144;2022-09-09T05:28:36;4.10;;;3.80;;
57315;SDS011;43156;50.942;18.144;2022-09-09T05:31:04;4.20;;;3.90;;
57315;SDS011;43156;50.942;18.144;2022-09-09T05:33:34;4.00;;;3.70;;
57315;SDS011;43156;50.942;18.144;2022-09-09T05:36:07;4.20;;;3.90;;
57315;SDS011;43156;50.942;18.144;2022-09-09T05:38:37;3.90;;;3.40;;
57315;SDS011;43156;50.942;18.144;2022-09-09T05:41:08;4.20;;;3.90;;
57315;SDS011;43156;50.942;18.144;2022-09-09T05:43:38;4.30;;;3.90;;
57315;SDS011;43156;50.942;18.144;2022-09-09T05:46:16;4.10;;;3.80;;
57315;SDS011;43156;50.942;18.144;2022-09-09T05:48:44;4.00;;;3.70;;
57315;SDS011;43156;50.942;18.144;2022-09-09T05:53:45;4.10;;;3.80;;
57315;SDS011;43156;50.942;18.144;2022-09-09T05:56:31;3.80;;;3.50;;
57315;SDS011;43156;50.942;18.144;2022-09-09T05:59:06;5.40;;;4.90;;
57315;SDS011;43156;50.942;18.144;2022-09-09T06:01:41;4.90;;;4.50;;
57315;SDS011;43156;50.942;18.144;2022-09-09T06:04:11;3.60;;;3.40;;
57315;SDS011;43156;50.942;18.144;2022-09-09T06:06:47;3.60;;;3.20;;
57315;SDS011;43156;50.942;18.144;2022-09-09T06:09:27;4.40;;;3.60;;
57315;SDS011;43156;50.942;18.144;2022-09-09T06:12:02;3.50;;;3.20;;
57315;SDS011;43156;50.942;18.144;2022-09-09T06:14:29;3.90;;;3.50;;
57315;SDS011;43156;50.942;18.144;2022-09-09T06:16:58;3.80;;;3.40;;
57315;SDS011;43156;50.942;18.144;2022-09-09T06:19:28;4.30;;;3.50;;
57315;SDS011;43156;50.942;18.144;2022-09-09T06:22:03;3.50;;;3.20;;
57315;SDS011;43156;50.942;18.144;2022-09-09T06:24:32;4.10;;;3.20;;
57315;SDS011;43156;50.942;18.144;2022-09-09T06:27:00;3.40;;;3.10;;
57315;SDS011;43156;50.942;18.144;2022-09-09T06:29:35;3.60;;;3.30;;
57315;SDS011;43156;50.942;18.144;2022-09-09T06:32:02;3.40;;;3.10;;
57315;SDS011;43156;50.942;18.144;2022-09-09T06:34:32;3.30;;;3.10;;
57315;SDS011;43156;50.942;18.144;2022-09-09T06:37:02;3.80;;;3.50;;
57315;SDS011;43156;50.942;18.144;2022-09-09T06:39:31;3.70;;;3.40;;
57315;SDS011;43156;50.942;18.144;2022-09-09T06:42:12;3.90;;;3.10;;
57315;SDS011;43156;50.942;18.144;2022-09-09T06:44:52;3.30;;;3.10;;
57315;SDS011;43156;50.942;18.144;2022-09-09T06:47:20;3.90;;;3.50;;
57315;SDS011;43156;50.942;18.144;2022-09-09T06:49:53;3.40;;;3.10;;
57315;SDS011;43156;50.942;18.144;2022-09-09T06:52:21;3.20;;;2.90;;
57315;SDS011;43156;50.942;18.144;2022-09-09T06:55:00;3.30;;;2.90;;
57315;SDS011;43156;50.942;18.144;2022-09-09T06:57:29;3.00;;;2.70;;
57315;SDS011;43156;50.942;18.144;2022-09-09T07:00:05;3.30;;;2.90;;
57315;SDS011;43156;50.942;18.144;2022-09-09T07:02:35;2.90;;;2.60;;
57315;SDS011;43156;50.942;18.144;2022-09-09T07:05:06;3.00;;;2.70;;
57315;SDS011;43156;50.942;18.144;2022-09-09T07:07:34;3.20;;;2.80;;
57315;SDS011;43156;50.942;18.144;2022-09-09T07:10:03;4.40;;;2.60;;
57315;SDS011;43156;50.942;18.144;2022-09-09T07:12:32;2.80;;;2.60;;
57315;SDS011;43156;50.942;18.144;2022-09-09T07:15:07;3.10;;;2.70;;
57315;SDS011;43156;50.942;18.144;2022-09-09T07:17:34;3.00;;;2.70;;
57315;SDS011;43156;50.942;18.144;2022-09-09T07:20:04;2.60;;;2.40;;
57315;SDS011;43156;50.942;18.144;2022-09-09T07:22:41;2.70;;;2.50;;
57315;SDS011;43156;50.942;18.144;2022-09-09T07:25:14;2.50;;;2.20;;
57315;SDS011;43156;50.942;18.144;2022-09-09T07:27:44;3.20;;;2.20;;
57315;SDS011;43156;50.942;18.144;2022-09-09T07:30:23;2.40;;;2.20;;
57315;SDS011;43156;50.942;18.144;2022-09-09T07:32:54;2.40;;;2.20;;
57315;SDS011;43156;50.942;18.144;2022-09-09T07:35:28;2.60;;;2.00;;
57315;SDS011;43156;50.942;18.144;2022-09-09T07:38:16;2.30;;;2.20;;
57315;SDS011;43156;50.942;18.144;2022-09-09T07:40:53;2.40;;;2.10;;
57315;SDS011;43156;50.942;18.144;2022-09-09T07:43:28;2.60;;;1.90;;
57315;SDS011;43156;50.942;18.144;2022-09-09T07:45:59;2.40;;;2.10;;
57315;SDS011;43156;50.942;18.144;2022-09-09T07:48:29;2.30;;;2.20;;
57315;SDS011;43156;50.942;18.144;2022-09-09T07:51:11;2.00;;;1.90;;
57315;SDS011;43156;50.942;18.144;2022-09-09T07:53:47;2.20;;;2.10;;
57315;SDS011;43156;50.942;18.144;2022-09-09T07:56:15;2.80;;;2.30;;
57315;SDS011;43156;50.942;18.144;2022-09-09T07:58:49;2.40;;;2.20;;
57315;SDS011;43156;50.942;18.144;2022-09-09T08:01:33;3.30;;;2.20;;
57315;SDS011;43156;50.942;18.144;2022-09-09T08:04:06;1.50;;;1.30;;
57315;SDS011;43156;50.942;18.144;2022-09-09T08:06:35;1.70;;;1.60;;
57315;SDS011;43156;50.942;18.144;2022-09-09T08:09:23;1.70;;;1.50;;
57315;SDS011;43156;50.942;18.144;2022-09-09T08:11:56;2.00;;;1.40;;
57315;SDS011;43156;50.942;18.144;2022-09-09T08:14:35;1.50;;;1.30;;
57315;SDS011;43156;50.942;18.144;2022-09-09T08:17:03;1.50;;;1.40;;
57315;SDS011;43156;50.942;18.144;2022-09-09T08:19:31;2.00;;;1.40;;
57315;SDS011;43156;50.942;18.144;2022-09-09T08:22:19;1.30;;;1.20;;
57315;SDS011;43156;50.942;18.144;2022-09-09T08:24:49;2.50;;;1.10;;
57315;SDS011;43156;50.942;18.144;2022-09-09T08:27:20;1.80;;;1.20;;
57315;SDS011;43156;50.942;18.144;2022-09-09T08:29:55;2.00;;;0.90;;
57315;SDS011;43156;50.942;18.144;2022-09-09T08:32:25;1.80;;;1.10;;
57315;SDS011;43156;50.942;18.144;2022-09-09T08:35:03;1.80;;;1.10;;
57315;SDS011;43156;50.942;18.144;2022-09-09T08:37:41;1.70;;;0.90;;
57315;SDS011;43156;50.942;18.144;2022-09-09T08:40:22;1.90;;;0.90;;
57315;SDS011;43156;50.942;18.144;2022-09-09T08:43:02;1.50;;;1.10;;
57315;SDS011;43156;50.942;18.144;2022-09-09T08:45:43;2.90;;;1.00;;
57315;SDS011;43156;50.942;18.144;2022-09-09T08:48:21;1.20;;;0.90;;
57315;SDS011;43156;50.942;18.144;2022-09-09T08:51:03;1.90;;;1.20;;
57315;SDS011;43156;50.942;18.144;2022-09-09T08:53:38;1.90;;;1.00;;
57315;SDS011;43156;50.942;18.144;2022-09-09T08:56:11;1.40;;;1.00;;
57315;SDS011;43156;50.942;18.144;2022-09-09T08:58:52;2.00;;;0.90;;
57315;SDS011;43156;50.942;18.144;2022-09-09T09:11:38;0.90;;;0.90;;
57315;SDS011;43156;50.942;18.144;2022-09-09T09:14:11;2.10;;;1.10;;
57315;SDS011;43156;50.942;18.144;2022-09-09T09:17:17;1.10;;;0.90;;
57315;SDS011;43156;50.942;18.144;2022-09-09T09:19:38;2.30;;;1.30;;
57315;SDS011;43156;50.942;18.144;2022-09-09T09:22:20;1.70;;;0.80;;
57315;SDS011;43156;50.942;18.144;2022-09-09T09:27:28;1.80;;;0.90;;
57315;SDS011;43156;50.942;18.144;2022-09-09T09:30:22;1.50;;;1.00;;
57315;SDS011;43156;50.942;18.144;2022-09-09T09:32:53;1.00;;;0.90;;
57315;SDS011;43156;50.942;18.144;2022-09-09T09:35:28;2.80;;;0.90;;
57315;SDS011;43156;50.942;18.144;2022-09-09T09:37:58;2.20;;;1.00;;
57315;SDS011;43156;50.942;18.144;2022-09-09T09:40:32;1.80;;;1.10;;
57315;SDS011;43156;50.942;18.144;2022-09-09T09:43:16;1.10;;;1.00;;
57315;SDS011;43156;50.942;18.144;2022-09-09T09:45:53;1.80;;;0.90;;
57315;SDS011;43156;50.942;18.144;2022-09-09T09:48:21;1.70;;;1.10;;
57315;SDS011;43156;50.942;18.144;2022-09-09T09:51:09;1.30;;;1.10;;
57315;SDS011;43156;50.942;18.144;2022-09-09T09:53:37;2.10;;;1.00;;
57315;SDS011;43156;50.942;18.144;2022-09-09T09:56:06;4.30;;;1.20;;
57315;SDS011;43156;50.942;18.144;2022-09-09T10:01:20;2.40;;;1.50;;
57315;SDS011;43156;50.942;18.144;2022-09-09T10:03:54;2.00;;;1.50;;
57315;SDS011;43156;50.942;18.144;2022-09-09T10:06:33;3.00;;;1.30;;
57315;SDS011;43156;50.942;18.144;2022-09-09T10:17:54;1.40;;;1.30;;
57315;SDS011;43156;50.942;18.144;2022-09-09T10:20:38;1.40;;;1.30;;
57315;SDS011;43156;50.942;18.144;2022-09-09T10:28:45;1.60;;;1.10;;
57315;SDS011;43156;50.942;18.144;2022-09-09T10:31:23;1.50;;;1.30;;
57315;SDS011;43156;50.942;18.144;2022-09-09T10:34:03;1.50;;;1.10;;
57315;SDS011;43156;50.942;18.144;2022-09-09T10:36:48;2.70;;;1.30;;
57315;SDS011;43156;50.942;18.144;2022-09-09T10:39:47;1.10;;;0.90;;
57315;SDS011;43156;50.942;18.144;2022-09-09T10:42:19;1.40;;;0.90;;
57315;SDS011;43156;50.942;18.144;2022-09-09T10:55:48;1.50;;;0.80;;
57315;SDS011;43156;50.942;18.144;2022-09-09T10:58:23;1.60;;;0.90;;
57315;SDS011;43156;50.942;18.144;2022-09-09T11:00:56;1.90;;;0.70;;
57315;SDS011;43156;50.942;18.144;2022-09-09T11:03:32;0.70;;;0.60;;
57315;SDS011;43156;50.942;18.144;2022-09-09T11:06:14;1.70;;;0.70;;
57315;SDS011;43156;50.942;18.144;2022-09-09T11:08:43;1.00;;;0.50;;
57315;SDS011;43156;50.942;18.144;2022-09-09T11:11:22;2.00;;;0.80;;
57315;SDS011;43156;50.942;18.144;2022-09-09T11:14:12;1.10;;;0.50;;
57315;SDS011;43156;50.942;18.144;2022-09-09T11:16:48;1.40;;;0.80;;
57315;SDS011;43156;50.942;18.144;2022-09-09T11:19:32;1.20;;;0.80;;
57315;SDS011;43156;50.942;18.144;2022-09-09T11:25:01;1.20;;;0.60;;
57315;SDS011;43156;50.942;18.144;2022-09-09T11:27:32;1.10;;;0.80;;
57315;SDS011;43156;50.942;18.144;2022-09-09T11:30:18;1.30;;;0.60;;
57315;SDS011;43156;50.942;18.144;2022-09-09T11:32:58;1.00;;;0.70;;
57315;SDS011;43156;50.942;18.144;2022-09-09T11:38:28;2.10;;;0.70;;
57315;SDS011;43156;50.942;18.144;2022-09-09T11:41:06;1.10;;;0.70;;
57315;SDS011;43156;50.942;18.144;2022-09-09T11:43:51;3.30;;;0.70;;
57315;SDS011;43156;50.942;18.144;2022-09-09T11:46:32;1.60;;;0.70;;
57315;SDS011;43156;50.942;18.144;2022-09-09T11:49:05;1.90;;;0.80;;
57315;SDS011;43156;50.942;18.144;2022-09-09T11:51:38;1.40;;;0.60;;
57315;SDS011;43156;50.942;18.144;2022-09-09T11:54:26;0.70;;;0.60;;
57315;SDS011;43156;50.942;18.144;2022-09-09T11:56:56;1.40;;;0.60;;
57315;SDS011;43156;50.942;18.144;2022-09-09T11:59:26;1.80;;;0.90;;
57315;SDS011;43156;50.942;18.144;2022-09-09T12:01:59;1.00;;;0.50;;
57315;SDS011;43156;50.942;18.144;2022-09-09T12:04:35;1.60;;;0.70;;
57315;SDS011;43156;50.942;18.144;2022-09-09T12:09:50;1.00;;;0.60;;
57315;SDS011;43156;50.942;18.144;2022-09-09T12:15:03;1.60;;;0.60;;
57315;SDS011;43156;50.942;18.144;2022-09-09T12:17:45;0.60;;;0.50;;
57315;SDS011;43156;50.942;18.144;2022-09-09T12:20:22;0.90;;;0.60;;
57315;SDS011;43156;50.942;18.144;2022-09-09T12:28:11;1.40;;;0.60;;
57315;SDS011;43156;50.942;18.144;2022-09-09T12:31:06;0.90;;;0.50;;
57315;SDS011;43156;50.942;18.144;2022-09-09T12:33:43;1.40;;;0.60;;
57315;SDS011;43156;50.942;18.144;2022-09-09T12:36:29;1.90;;;0.70;;
57315;SDS011;43156;50.942;18.144;2022-09-09T12:38:58;2.60;;;0.60;;
57315;SDS011;43156;50.942;18.144;2022-09-09T12:41:41;0.80;;;0.70;;
57315;SDS011;43156;50.942;18.144;2022-09-09T12:44:25;2.90;;;0.70;;
57315;SDS011;43156;50.942;18.144;2022-09-09T12:47:00;1.40;;;0.70;;
57315;SDS011;43156;50.942;18.144;2022-09-09T12:49:32;1.80;;;0.70;;
57315;SDS011;43156;50.942;18.144;2022-09-09T12:52:03;2.70;;;1.80;;
57315;SDS011;43156;50.942;18.144;2022-09-09T12:54:47;0.80;;;0.50;;
57315;SDS011;43156;50.942;18.144;2022-09-09T12:57:18;1.10;;;0.50;;
57315;SDS011;43156;50.942;18.144;2022-09-09T12:59:47;1.40;;;0.50;;
57315;SDS011;43156;50.942;18.144;2022-09-09T13:02:24;1.70;;;0.50;;
57315;SDS011;43156;50.942;18.144;2022-09-09T13:05:05;1.00;;;0.40;;
57315;SDS011;43156;50.942;18.144;2022-09-09T13:07:34;0.90;;;0.50;;
57315;SDS011;43156;50.942;18.144;2022-09-09T13:10:12;0.80;;;0.40;;
57315;SDS011;43156;50.942;18.144;2022-09-09T13:12:40;1.10;;;0.40;;
57315;SDS011;43156;50.942;18.144;2022-09-09T13:15:14;1.00;;;0.40;;
57315;SDS011;43156;50.942;18.144;2022-09-09T13:17:51;1.70;;;0.40;;
57315;SDS011;43156;50.942;18.144;2022-09-09T13:20:34;1.30;;;0.40;;
57315;SDS011;43156;50.942;18.144;2022-09-09T13:23:04;2.10;;;0.50;;
57315;SDS011;43156;50.942;18.144;2022-09-09T13:25:38;1.10;;;0.50;;
57315;SDS011;43156;50.942;18.144;2022-09-09T13:28:20;1.40;;;0.60;;
57315;SDS011;43156;50.942;18.144;2022-09-09T13:30:59;1.30;;;0.60;;
57315;SDS011;43156;50.942;18.144;2022-09-09T13:33:35;2.30;;;0.80;;
57315;SDS011;43156;50.942;18.144;2022-09-09T13:36:27;1.50;;;0.60;;
57315;SDS011;43156;50.942;18.144;2022-09-09T13:38:56;1.30;;;0.50;;
57315;SDS011;43156;50.942;18.144;2022-09-09T13:41:44;1.10;;;0.50;;
57315;SDS011;43156;50.942;18.144;2022-09-09T13:47:01;1.70;;;0.70;;
57315;SDS011;43156;50.942;18.144;2022-09-09T13:49:33;0.80;;;0.60;;
57315;SDS011;43156;50.942;18.144;2022-09-09T13:52:10;2.80;;;0.90;;
57315;SDS011;43156;50.942;18.144;2022-09-09T13:54:54;2.20;;;0.70;;
57315;SDS011;43156;50.942;18.144;2022-09-09T13:57:30;1.20;;;0.70;;
57315;SDS011;43156;50.942;18.144;2022-09-09T13:59:58;1.20;;;0.60;;
57315;SDS011;43156;50.942;18.144;2022-09-09T14:02:35;1.50;;;0.60;;
57315;SDS011;43156;50.942;18.144;2022-09-09T14:05:06;1.60;;;0.60;;
57315;SDS011;43156;50.942;18.144;2022-09-09T14:07:34;2.60;;;0.80;;
57315;SDS011;43156;50.942;18.144;2022-09-09T14:10:00;1.60;;;0.60;;
57315;SDS011;43156;50.942;18.144;2022-09-09T14:12:34;0.90;;;0.50;;
57315;SDS011;43156;50.942;18.144;2022-09-09T14:15:04;1.70;;;0.70;;
57315;SDS011;43156;50.942;18.144;2022-09-09T14:17:33;1.70;;;0.60;;
57315;SDS011;43156;50.942;18.144;2022-09-09T14:20:04;1.20;;;0.70;;
57315;SDS011;43156;50.942;18.144;2022-09-09T14:22:37;3.40;;;0.60;;
57315;SDS011;43156;50.942;18.144;2022-09-09T14:25:08;0.80;;;0.50;;
57315;SDS011;43156;50.942;18.144;2022-09-09T14:27:42;1.90;;;0.70;;
57315;SDS011;43156;50.942;18.144;2022-09-09T14:30:12;2.10;;;0.60;;
57315;SDS011;43156;50.942;18.144;2022-09-09T14:32:40;2.00;;;0.60;;
57315;SDS011;43156;50.942;18.144;2022-09-09T14:35:16;1.00;;;0.50;;
57315;SDS011;43156;50.942;18.144;2022-09-09T14:37:55;1.30;;;0.60;;
57315;SDS011;43156;50.942;18.144;2022-09-09T14:40:25;2.10;;;0.70;;
57315;SDS011;43156;50.942;18.144;2022-09-09T14:42:54;1.10;;;0.70;;
57315;SDS011;43156;50.942;18.144;2022-09-09T14:45:23;1.60;;;0.50;;
57315;SDS011;43156;50.942;18.144;2022-09-09T14:47:53;1.50;;;0.70;;
57315;SDS011;43156;50.942;18.144;2022-09-09T14:50:24;1.60;;;0.70;;
57315;SDS011;43156;50.942;18.144;2022-09-09T14:52:51;2.30;;;0.50;;
57315;SDS011;43156;50.942;18.144;2022-09-09T14:55:36;1.70;;;0.60;;
57315;SDS011;43156;50.942;18.144;2022-09-09T14:58:14;2.00;;;0.60;;
57315;SDS011;43156;50.942;18.144;2022-09-09T15:00:50;5.40;;;0.80;;
57315;SDS011;43156;50.942;18.144;2022-09-09T15:03:20;3.10;;;0.70;;
57315;SDS011;43156;50.942;18.144;2022-09-09T15:05:49;3.70;;;0.60;;
57315;SDS011;43156;50.942;18.144;2022-09-09T15:08:15;1.80;;;0.50;;
57315;SDS011;43156;50.942;18.144;2022-09-09T15:10:58;1.80;;;0.60;;
57315;SDS011;43156;50.942;18.144;2022-09-09T15:13:26;1.80;;;0.60;;
57315;SDS011;43156;50.942;18.144;2022-09-09T15:18:38;1.60;;;0.60;;
57315;SDS011;43156;50.942;18.144;2022-09-09T15:21:19;3.30;;;0.60;;
57315;SDS011;43156;50.942;18.144;2022-09-09T15:23:49;2.10;;;0.70;;
57315;SDS011;43156;50.942;18.144;2022-09-09T15:26:20;0.80;;;0.60;;
57315;SDS011;43156;50.942;18.144;2022-09-09T15:28:51;0.80;;;0.50;;
57315;SDS011;43156;50.942;18.144;2022-09-09T15:31:24;1.80;;;0.70;;
57315;SDS011;43156;50.942;18.144;2022-09-09T15:34:01;0.80;;;0.60;;
57315;SDS011;43156;50.942;18.144;2022-09-09T15:36:45;1.90;;;0.70;;
57315;SDS011;43156;50.942;18.144;2022-09-09T15:39:28;2.20;;;0.80;;
57315;SDS011;43156;50.942;18.144;2022-09-09T15:41:58;1.50;;;0.80;;
57315;SDS011;43156;50.942;18.144;2022-09-09T15:44:37;1.20;;;0.80;;
57315;SDS011;43156;50.942;18.144;2022-09-09T15:47:11;1.70;;;0.80;;
57315;SDS011;43156;50.942;18.144;2022-09-09T15:49:46;1.80;;;0.80;;
57315;SDS011;43156;50.942;18.144;2022-09-09T15:52:14;1.90;;;0.80;;
57315;SDS011;43156;50.942;18.144;2022-09-09T15:54:46;3.30;;;0.90;;
57315;SDS011;43156;50.942;18.144;2022-09-09T15:57:15;2.20;;;0.70;;
57315;SDS011;43156;50.942;18.144;2022-09-09T15:59:44;1.50;;;0.80;;
57315;SDS011;43156;50.942;18.144;2022-09-09T16:02:19;2.10;;;0.80;;
57315;SDS011;43156;50.942;18.144;2022-09-09T16:04:47;1.90;;;0.80;;
57315;SDS011;43156;50.942;18.144;2022-09-09T16:07:17;1.10;;;0.70;;
57315;SDS011;43156;50.942;18.144;2022-09-09T16:09:53;1.80;;;0.70;;
57315;SDS011;43156;50.942;18.144;2022-09-09T16:12:32;1.50;;;0.90;;
57315;SDS011;43156;50.942;18.144;2022-09-09T16:15:11;3.70;;;1.10;;
57315;SDS011;43156;50.942;18.144;2022-09-09T16:17:55;1.70;;;0.90;;
57315;SDS011;43156;50.942;18.144;2022-09-09T16:20:29;3.00;;;1.10;;
57315;SDS011;43156;50.942;18.144;2022-09-09T16:22:58;1.90;;;1.00;;
57315;SDS011;43156;50.942;18.144;2022-09-09T16:25:54;1.40;;;0.80;;
57315;SDS011;43156;50.942;18.144;2022-09-09T16:28:25;2.00;;;1.00;;
57315;SDS011;43156;50.942;18.144;2022-09-09T16:30:57;2.70;;;1.10;;
57315;SDS011;43156;50.942;18.144;2022-09-09T16:33:27;2.00;;;1.00;;
57315;SDS011;43156;50.942;18.144;2022-09-09T16:36:04;1.60;;;0.90;;
57315;SDS011;43156;50.942;18.144;2022-09-09T16:38:30;3.50;;;1.30;;
57315;SDS011;43156;50.942;18.144;2022-09-09T16:41:05;2.90;;;1.50;;
57315;SDS011;43156;50.942;18.144;2022-09-09T16:43:33;4.30;;;2.00;;
57315;SDS011;43156;50.942;18.144;2022-09-09T16:46:13;2.10;;;1.70;;
57315;SDS011;43156;50.942;18.144;2022-09-09T16:48:42;4.60;;;1.60;;
57315;SDS011;43156;50.942;18.144;2022-09-09T16:51:28;2.20;;;1.20;;
57315;SDS011;43156;50.942;18.144;2022-09-09T16:54:29;2.10;;;1.20;;
57315;SDS011;43156;50.942;18.144;2022-09-09T16:57:01;3.30;;;1.20;;